Time,TemperatureF,DewpointF,PressureIn,WindDirection,WindDirectionDegrees,WindSpeedMPH,WindSpeedGustMPH,Humidity,HourlyPrecipIn,Conditions,Clouds,dailyrainin,SoftwareType,DateUTC
2013-11-06 00:00:00,44.7,43.9,30.15,South,170,1.0,4.0,97,0.00,,,0.00,Wunderground v.1.15,2013-11-06 05:00:00,
2013-11-06 00:10:00,45.0,44.2,30.14,SSE,165,3.0,4.0,97,0.00,,,0.01,Wunderground v.1.15,2013-11-06 05:10:00,
2013-11-06 00:20:00,45.5,44.7,30.14,South,173,4.0,6.0,97,0.00,,,0.01,Wunderground v.1.15,2013-11-06 05:20:00,
2013-11-06 00:30:00,45.6,44.8,30.14,South,178,4.0,5.0,97,0.00,,,0.01,Wunderground v.1.15,2013-11-06 05:30:00,
2013-11-06 00:40:00,45.6,44.8,30.14,South,173,4.0,5.0,97,0.00,,,0.01,Wunderground v.1.15,2013-11-06 05:40:00,
2013-11-06 00:50:00,45.7,44.9,30.14,SSE,164,5.0,5.0,97,0.00,,,0.01,Wunderground v.1.15,2013-11-06 05:50:00,
2013-11-06 01:00:00,45.7,44.9,30.14,South,169,5.0,5.0,97,0.00,,,0.01,Wunderground v.1.15,2013-11-06 06:00:00,
2013-11-06 01:10:00,45.6,44.8,30.14,SSE,168,4.0,4.0,97,0.00,,,0.02,Wunderground v.1.15,2013-11-06 06:10:00,
2013-11-06 01:20:00,45.6,44.8,30.13,South,175,4.0,7.0,97,0.00,,,0.02,Wunderground v.1.15,2013-11-06 06:20:00,
2013-11-06 01:30:00,45.6,44.8,30.13,South,178,5.0,7.0,97,0.00,,,0.02,Wunderground v.1.15,2013-11-06 06:30:00,
2013-11-06 01:40:00,45.6,44.8,30.12,South,172,6.0,6.0,97,0.00,,,0.02,Wunderground v.1.15,2013-11-06 06:40:00,
2013-11-06 01:50:00,45.6,44.8,30.11,SSE,166,5.0,7.0,97,0.00,,,0.02,Wunderground v.1.15,2013-11-06 06:50:00,
2013-11-06 02:00:00,45.6,44.8,30.11,SSE,158,6.0,7.0,97,0.00,,,0.03,Wunderground v.1.15,2013-11-06 07:00:00,
2013-11-06 02:10:00,45.5,44.7,30.11,SSE,163,6.0,9.0,97,0.00,,,0.03,Wunderground v.1.15,2013-11-06 07:10:00,
2013-11-06 02:20:00,45.5,44.7,30.11,South,173,4.0,4.0,97,0.00,,,0.03,Wunderground v.1.15,2013-11-06 07:20:00,
2013-11-06 02:30:00,45.5,44.7,30.11,South,181,3.0,3.0,97,0.00,,,0.03,Wunderground v.1.15,2013-11-06 07:30:00,
2013-11-06 02:40:00,45.5,44.7,30.11,South,182,4.0,8.0,97,0.00,,,0.03,Wunderground v.1.15,2013-11-06 07:40:00,
2013-11-06 02:50:00,45.5,44.7,30.11,South,175,3.0,7.0,97,0.00,,,0.03,Wunderground v.1.15,2013-11-06 07:50:00,
2013-11-06 03:00:00,45.4,44.6,30.10,SSE,166,3.0,7.0,97,0.00,,,0.03,Wunderground v.1.15,2013-11-06 08:00:00,
2013-11-06 03:10:00,45.4,44.6,30.10,South,173,3.0,3.0,97,0.00,,,0.03,Wunderground v.1.15,2013-11-06 08:10:00,
2013-11-06 03:20:00,45.3,44.5,30.09,South,173,1.0,1.0,97,0.00,,,0.03,Wunderground v.1.15,2013-11-06 08:20:00,
2013-11-06 03:30:00,45.4,44.9,30.09,South,175,2.0,7.0,98,0.00,,,0.03,Wunderground v.1.15,2013-11-06 08:30:00,
2013-11-06 03:40:00,45.3,44.8,30.09,South,175,3.0,3.0,98,0.00,,,0.03,Wunderground v.1.15,2013-11-06 08:40:00,
2013-11-06 03:50:00,45.2,44.7,30.09,South,175,1.0,1.0,98,0.00,,,0.03,Wunderground v.1.15,2013-11-06 08:50:00,
2013-11-06 04:00:00,45.2,44.7,30.09,South,175,0.0,7.0,98,0.00,,,0.03,Wunderground v.1.15,2013-11-06 09:00:00,
2013-11-06 04:10:00,45.2,44.7,30.08,South,175,0.0,7.0,98,0.00,,,0.03,Wunderground v.1.15,2013-11-06 09:10:00,
2013-11-06 04:20:00,45.2,44.7,30.09,South,175,0.0,7.0,98,0.00,,,0.03,Wunderground v.1.15,2013-11-06 09:20:00,
2013-11-06 04:30:00,45.2,44.7,30.08,South,175,0.0,7.0,98,0.00,,,0.03,Wunderground v.1.15,2013-11-06 09:30:00,
2013-11-06 04:40:00,45.3,44.8,30.08,South,175,0.0,7.0,98,0.00,,,0.03,Wunderground v.1.15,2013-11-06 09:40:00,
2013-11-06 04:50:00,45.5,45.0,30.07,South,175,0.0,7.0,98,0.00,,,0.03,Wunderground v.1.15,2013-11-06 09:50:00,
2013-11-06 05:00:00,45.5,45.0,30.08,South,175,2.0,2.0,98,0.00,,,0.03,Wunderground v.1.15,2013-11-06 10:00:00,
2013-11-06 05:10:00,45.3,44.8,30.08,South,175,0.0,7.0,98,0.00,,,0.03,Wunderground v.1.15,2013-11-06 10:10:00,
2013-11-06 05:20:00,45.4,44.9,30.07,South,175,1.0,1.0,98,0.00,,,0.03,Wunderground v.1.15,2013-11-06 10:20:00,
2013-11-06 05:30:00,45.6,45.1,30.07,South,175,0.0,7.0,98,0.00,,,0.03,Wunderground v.1.15,2013-11-06 10:30:00,
2013-11-06 05:40:00,45.8,45.3,30.07,South,175,0.0,7.0,98,0.00,,,0.03,Wunderground v.1.15,2013-11-06 10:40:00,
2013-11-06 05:50:00,45.9,45.4,30.07,South,175,0.0,7.0,98,0.00,,,0.03,Wunderground v.1.15,2013-11-06 10:50:00,
2013-11-06 06:00:00,45.9,45.4,30.07,South,175,0.0,7.0,98,0.00,,,0.03,Wunderground v.1.15,2013-11-06 11:00:00,
2013-11-06 06:10:00,45.9,45.4,30.07,South,175,0.0,7.0,98,0.00,,,0.03,Wunderground v.1.15,2013-11-06 11:10:00,
2013-11-06 06:20:00,45.8,45.3,30.07,South,175,0.0,7.0,98,0.00,,,0.03,Wunderground v.1.15,2013-11-06 11:20:00,
2013-11-06 06:30:00,45.7,45.2,30.06,South,175,0.0,7.0,98,0.00,,,0.03,Wunderground v.1.15,2013-11-06 11:30:00,
2013-11-06 06:40:00,45.7,45.2,30.06,South,175,1.0,1.0,98,0.00,,,0.03,Wunderground v.1.15,2013-11-06 11:40:00,
2013-11-06 06:50:00,45.6,45.1,30.06,South,175,1.0,7.0,98,0.00,,,0.03,Wunderground v.1.15,2013-11-06 11:50:00,
2013-11-06 07:00:00,45.6,45.1,30.06,South,175,1.0,7.0,98,0.00,,,0.03,Wunderground v.1.15,2013-11-06 12:00:00,
2013-11-06 07:10:00,45.3,44.8,30.07,South,171,3.0,3.0,98,0.00,,,0.03,Wunderground v.1.15,2013-11-06 12:10:00,
2013-11-06 07:20:00,45.0,44.5,30.06,SSE,153,3.0,3.0,98,0.00,,,0.03,Wunderground v.1.15,2013-11-06 12:20:00,
2013-11-06 07:30:00,44.9,44.4,30.07,SSE,153,1.0,1.0,98,0.00,,,0.03,Wunderground v.1.15,2013-11-06 12:30:00,
2013-11-06 07:40:00,45.0,44.5,30.07,SSE,153,1.0,1.0,98,0.00,,,0.03,Wunderground v.1.15,2013-11-06 12:40:00,
2013-11-06 07:50:00,44.9,44.4,30.06,SSE,153,0.0,7.0,98,0.00,,,0.03,Wunderground v.1.15,2013-11-06 12:50:00,
2013-11-06 08:00:00,44.9,44.4,30.07,SSE,153,2.0,7.0,98,0.00,,,0.03,Wunderground v.1.15,2013-11-06 13:00:00,
2013-11-06 08:10:00,45.0,44.5,30.07,SSE,153,1.0,1.0,98,0.00,,,0.03,Wunderground v.1.15,2013-11-06 13:10:00,
2013-11-06 08:20:00,45.1,44.6,30.07,SSE,153,0.0,0.0,98,0.00,,,0.03,Wunderground v.1.15,2013-11-06 13:20:00,
2013-11-06 08:30:00,45.4,44.9,30.07,SSE,153,0.0,0.0,98,0.00,,,0.03,Wunderground v.1.15,2013-11-06 13:30:00,
2013-11-06 08:40:00,46.0,45.5,30.07,SSE,153,0.0,0.0,98,0.00,,,0.03,Wunderground v.1.15,2013-11-06 13:40:00,
2013-11-06 08:50:00,46.5,46.0,30.07,SSE,153,0.0,0.0,98,0.00,,,0.03,Wunderground v.1.15,2013-11-06 13:50:00,
2013-11-06 09:00:00,47.1,46.6,30.07,SSE,153,0.0,0.0,98,0.00,,,0.03,Wunderground v.1.15,2013-11-06 14:00:00,
2013-11-06 09:10:00,47.4,46.9,30.07,SSE,153,0.0,5.0,98,0.00,,,0.03,Wunderground v.1.15,2013-11-06 14:10:00,
2013-11-06 09:20:00,47.8,47.3,30.07,SSE,153,1.0,5.0,98,0.00,,,0.03,Wunderground v.1.15,2013-11-06 14:20:00,
2013-11-06 09:30:00,47.6,47.1,30.06,SSE,153,2.0,2.0,98,0.00,,,0.03,Wunderground v.1.15,2013-11-06 14:30:00,
2013-11-06 09:40:00,47.8,47.3,30.06,SSE,160,2.0,5.0,98,0.00,,,0.03,Wunderground v.1.15,2013-11-06 14:40:00,
2013-11-06 09:50:00,47.7,47.2,30.06,South,178,5.0,7.0,98,0.00,,,0.03,Wunderground v.1.15,2013-11-06 14:50:00,
2013-11-06 10:00:00,47.9,47.4,30.07,South,176,5.0,6.0,98,0.00,,,0.03,Wunderground v.1.15,2013-11-06 15:00:00,
2013-11-06 10:10:00,48.2,47.7,30.06,South,181,4.0,4.0,98,0.00,,,0.03,Wunderground v.1.15,2013-11-06 15:10:00,
2013-11-06 10:20:00,47.7,47.2,30.06,South,182,3.0,3.0,98,0.00,,,0.03,Wunderground v.1.15,2013-11-06 15:20:00,
2013-11-06 10:30:00,48.0,47.5,30.06,South,178,4.0,5.0,98,0.00,,,0.03,Wunderground v.1.15,2013-11-06 15:30:00,
2013-11-06 10:40:00,48.8,48.3,30.05,South,191,5.0,5.0,98,0.00,,,0.03,Wunderground v.1.15,2013-11-06 15:40:00,
2013-11-06 10:50:00,50.2,49.7,30.05,South,182,6.0,6.0,98,0.00,,,0.03,Wunderground v.1.15,2013-11-06 15:50:00,
2013-11-06 11:00:00,52.2,51.7,30.05,South,184,5.0,6.0,98,0.00,,,0.03,Wunderground v.1.15,2013-11-06 16:00:00,
2013-11-06 11:10:00,52.6,51.2,30.04,South,174,5.0,7.0,95,0.00,,,0.03,Wunderground v.1.15,2013-11-06 16:10:00,
2013-11-06 11:20:00,53.5,50.3,30.04,SSE,168,5.0,6.0,89,0.00,,,0.03,Wunderground v.1.15,2013-11-06 16:20:00,
2013-11-06 11:30:00,54.2,49.8,30.03,South,175,5.0,11.0,85,0.00,,,0.03,Wunderground v.1.15,2013-11-06 16:30:00,
2013-11-06 11:40:00,54.8,48.7,30.03,SSE,155,6.0,6.0,80,0.00,,,0.03,Wunderground v.1.15,2013-11-06 16:40:00,
2013-11-06 11:50:00,54.7,49.0,30.02,SSW,207,5.0,6.0,81,0.00,,,0.03,Wunderground v.1.15,2013-11-06 16:50:00,
2013-11-06 12:00:00,54.8,48.1,30.02,South,174,7.0,10.0,78,0.00,,,0.03,Wunderground v.1.15,2013-11-06 17:00:00,
2013-11-06 12:10:00,55.3,49.2,30.01,SSE,168,6.0,6.0,80,0.00,,,0.03,Wunderground v.1.15,2013-11-06 17:10:00,
2013-11-06 12:20:00,55.8,49.0,30.01,South,174,4.0,5.0,78,0.00,,,0.03,Wunderground v.1.15,2013-11-06 17:20:00,
2013-11-06 12:30:00,56.0,48.9,30.00,SSE,148,4.0,4.0,77,0.00,,,0.03,Wunderground v.1.15,2013-11-06 17:30:00,
2013-11-06 12:40:00,57.3,51.9,30.00,South,188,6.0,6.0,82,0.00,,,0.04,Wunderground v.1.15,2013-11-06 17:40:00,
2013-11-06 12:50:00,57.7,50.9,29.99,SSE,160,4.0,7.0,78,0.00,,,0.04,Wunderground v.1.15,2013-11-06 17:50:00,
2013-11-06 13:00:00,57.3,50.5,29.99,SSW,193,3.0,3.0,78,0.00,,,0.04,Wunderground v.1.15,2013-11-06 18:00:00,
2013-11-06 13:10:00,57.3,50.8,29.98,South,183,2.0,2.0,79,0.00,,,0.04,Wunderground v.1.15,2013-11-06 18:10:00,
2013-11-06 13:20:00,57.4,50.2,29.98,South,177,3.0,3.0,77,0.00,,,0.04,Wunderground v.1.15,2013-11-06 18:20:00,
2013-11-06 13:30:00,56.4,49.6,29.97,South,184,3.0,13.0,78,0.00,,,0.04,Wunderground v.1.15,2013-11-06 18:30:00,
2013-11-06 13:40:00,56.8,50.0,29.96,SW,219,5.0,5.0,78,0.00,,,0.04,Wunderground v.1.15,2013-11-06 18:40:00,
2013-11-06 13:50:00,57.9,50.4,29.96,South,181,3.0,13.0,76,0.00,,,0.04,Wunderground v.1.15,2013-11-06 18:50:00,
2013-11-06 14:00:00,57.7,50.2,29.95,SSW,205,6.0,6.0,76,0.00,,,0.04,Wunderground v.1.15,2013-11-06 19:00:00,
2013-11-06 14:10:00,57.5,50.0,29.95,South,186,5.0,5.0,76,0.00,,,0.04,Wunderground v.1.15,2013-11-06 19:10:00,
2013-11-06 14:20:00,57.5,50.0,29.94,SSE,163,6.0,6.0,76,0.00,,,0.04,Wunderground v.1.15,2013-11-06 19:20:00,
2013-11-06 14:30:00,57.3,50.1,29.94,South,173,6.0,6.0,77,0.00,,,0.04,Wunderground v.1.15,2013-11-06 19:30:00,
2013-11-06 14:40:00,57.3,50.5,29.93,South,180,6.0,6.0,78,0.00,,,0.04,Wunderground v.1.15,2013-11-06 19:40:00,
2013-11-06 14:50:00,57.1,50.0,29.93,South,177,7.0,7.0,77,0.00,,,0.04,Wunderground v.1.15,2013-11-06 19:50:00,
2013-11-06 15:00:00,57.2,50.1,29.93,South,170,5.0,5.0,77,0.00,,,0.04,Wunderground v.1.15,2013-11-06 20:00:00,
2013-11-06 15:10:00,57.9,50.4,29.93,South,180,4.0,4.0,76,0.00,,,0.04,Wunderground v.1.15,2013-11-06 20:10:00,
2013-11-06 15:20:00,58.4,50.1,29.93,SSE,153,4.0,9.0,74,0.00,,,0.04,Wunderground v.1.15,2013-11-06 20:20:00,
2013-11-06 15:30:00,58.5,50.6,29.93,South,175,4.0,9.0,75,0.00,,,0.04,Wunderground v.1.15,2013-11-06 20:30:00,
2013-11-06 15:40:00,58.6,50.3,29.92,SSE,166,3.0,3.0,74,0.00,,,0.04,Wunderground v.1.15,2013-11-06 20:40:00,
2013-11-06 15:50:00,57.8,49.9,29.92,South,184,4.0,4.0,75,0.00,,,0.04,Wunderground v.1.15,2013-11-06 20:50:00,
2013-11-06 16:00:00,57.6,49.7,29.91,SSW,193,3.0,9.0,75,0.00,,,0.04,Wunderground v.1.15,2013-11-06 21:00:00,
2013-11-06 16:10:00,58.1,50.2,29.91,SSW,193,3.0,4.0,75,0.00,,,0.04,Wunderground v.1.15,2013-11-06 21:10:00,
2013-11-06 16:20:00,57.8,49.9,29.91,South,172,4.0,4.0,75,0.00,,,0.04,Wunderground v.1.15,2013-11-06 21:20:00,
2013-11-06 16:30:00,57.2,49.3,29.90,SSE,161,4.0,4.0,75,0.00,,,0.04,Wunderground v.1.15,2013-11-06 21:30:00,
2013-11-06 16:40:00,57.1,49.6,29.90,South,176,3.0,3.0,76,0.00,,,0.04,Wunderground v.1.15,2013-11-06 21:40:00,
2013-11-06 16:50:00,56.7,49.2,29.90,South,185,2.0,2.0,76,0.00,,,0.04,Wunderground v.1.15,2013-11-06 21:50:00,
2013-11-06 17:00:00,55.9,49.1,29.90,South,185,1.0,3.0,78,0.00,,,0.04,Wunderground v.1.15,2013-11-06 22:00:00,
2013-11-06 17:10:00,54.8,48.7,29.90,SSW,203,2.0,12.0,80,0.00,,,0.04,Wunderground v.1.15,2013-11-06 22:10:00,
2013-11-06 17:20:00,53.9,48.2,29.89,SSW,197,2.0,12.0,81,0.00,,,0.04,Wunderground v.1.15,2013-11-06 22:20:00,
2013-11-06 17:30:00,53.0,47.7,29.89,South,180,3.0,12.0,82,0.00,,,0.04,Wunderground v.1.15,2013-11-06 22:30:00,
2013-11-06 17:40:00,52.3,47.6,29.88,South,175,3.0,12.0,84,0.00,,,0.04,Wunderground v.1.15,2013-11-06 22:40:00,
2013-11-06 17:50:00,51.7,47.3,29.88,South,173,4.0,12.0,85,0.00,,,0.04,Wunderground v.1.15,2013-11-06 22:50:00,
2013-11-06 18:00:00,51.5,47.8,29.88,South,173,5.0,12.0,87,0.00,,,0.04,Wunderground v.1.15,2013-11-06 23:00:00,
2013-11-06 18:10:00,51.7,48.0,29.88,South,180,7.0,7.0,87,0.00,,,0.04,Wunderground v.1.15,2013-11-06 23:10:00,
2013-11-06 18:20:00,51.7,48.0,29.88,South,188,6.0,6.0,87,0.00,,,0.04,Wunderground v.1.15,2013-11-06 23:20:00,
2013-11-06 18:30:00,51.7,48.0,29.88,South,181,6.0,6.0,87,0.00,,,0.04,Wunderground v.1.15,2013-11-06 23:30:00,
2013-11-06 18:40:00,51.6,47.9,29.88,SSW,200,6.0,12.0,87,0.00,,,0.04,Wunderground v.1.15,2013-11-06 23:40:00,
2013-11-06 18:50:00,51.5,48.1,29.88,SSW,200,5.0,12.0,88,0.00,,,0.04,Wunderground v.1.15,2013-11-06 23:50:00,
2013-11-06 19:00:00,51.2,47.8,29.88,SSW,204,4.0,12.0,88,0.00,,,0.04,Wunderground v.1.15,2013-11-07 00:00:00,
2013-11-06 19:10:00,51.0,47.9,29.88,SSW,202,4.0,12.0,89,0.00,,,0.04,Wunderground v.1.15,2013-11-07 00:10:00,
2013-11-06 19:20:00,51.2,48.1,29.88,SW,216,4.0,12.0,89,0.00,,,0.04,Wunderground v.1.15,2013-11-07 00:20:00,
2013-11-06 19:30:00,51.1,48.0,29.87,SSW,204,5.0,12.0,89,0.00,,,0.04,Wunderground v.1.15,2013-11-07 00:30:00,
2013-11-06 19:40:00,50.9,47.8,29.87,SSW,201,5.0,5.0,89,0.00,,,0.04,Wunderground v.1.15,2013-11-07 00:40:00,
2013-11-06 19:50:00,50.8,48.0,29.86,SSW,204,7.0,12.0,90,0.00,,,0.04,Wunderground v.1.15,2013-11-07 00:50:00,
2013-11-06 20:00:00,50.7,47.9,29.86,SSW,198,7.0,7.0,90,0.00,,,0.04,Wunderground v.1.15,2013-11-07 01:00:00,
2013-11-06 20:10:00,50.6,47.8,29.86,SSW,200,4.0,4.0,90,0.00,,,0.04,Wunderground v.1.15,2013-11-07 01:10:00,
2013-11-06 20:20:00,50.1,47.3,29.86,SSW,207,4.0,4.0,90,0.00,,,0.04,Wunderground v.1.15,2013-11-07 01:20:00,
2013-11-06 20:30:00,49.5,47.0,29.86,SSW,213,4.0,4.0,91,0.00,,,0.04,Wunderground v.1.15,2013-11-07 01:30:00,
2013-11-06 20:40:00,49.4,47.2,29.86,SSW,207,4.0,4.0,92,0.00,,,0.04,Wunderground v.1.15,2013-11-07 01:40:00,
2013-11-06 20:50:00,49.0,46.8,29.85,SSW,213,4.0,4.0,92,0.00,,,0.04,Wunderground v.1.15,2013-11-07 01:50:00,
2013-11-06 21:00:00,48.5,46.3,29.85,SW,219,3.0,3.0,92,0.00,,,0.04,Wunderground v.1.15,2013-11-07 02:00:00,
2013-11-06 21:10:00,49.8,48.1,29.85,SW,223,4.0,13.0,94,0.00,,,0.04,Wunderground v.1.15,2013-11-07 02:10:00,
2013-11-06 21:20:00,49.7,47.5,29.85,SW,223,5.0,5.0,92,0.00,,,0.04,Wunderground v.1.15,2013-11-07 02:20:00,
2013-11-06 21:30:00,49.4,47.2,29.84,SW,223,5.0,13.0,92,0.00,,,0.04,Wunderground v.1.15,2013-11-07 02:30:00,
2013-11-06 21:40:00,49.6,47.4,29.84,SW,223,6.0,13.0,92,0.00,,,0.04,Wunderground v.1.15,2013-11-07 02:40:00,
2013-11-06 21:50:00,49.7,47.5,29.84,SW,223,7.0,7.0,92,0.00,,,0.04,Wunderground v.1.15,2013-11-07 02:50:00,
2013-11-06 22:00:00,49.8,47.3,29.83,SW,223,5.0,5.0,91,0.00,,,0.04,Wunderground v.1.15,2013-11-07 03:00:00,
2013-11-06 22:10:00,49.8,47.6,29.83,WSW,250,3.0,13.0,92,0.00,,,0.04,Wunderground v.1.15,2013-11-07 03:10:00,
2013-11-06 22:20:00,49.7,47.5,29.83,SW,227,4.0,4.0,92,0.00,,,0.04,Wunderground v.1.15,2013-11-07 03:20:00,
2013-11-06 22:30:00,49.8,47.6,29.82,SW,226,4.0,13.0,92,0.00,,,0.04,Wunderground v.1.15,2013-11-07 03:30:00,
2013-11-06 22:40:00,49.4,47.2,29.82,SW,223,4.0,4.0,92,0.00,,,0.04,Wunderground v.1.15,2013-11-07 03:40:00,
2013-11-06 22:50:00,48.9,47.0,29.81,SW,230,3.0,13.0,93,0.00,,,0.04,Wunderground v.1.15,2013-11-07 03:50:00,
2013-11-06 23:00:00,48.4,46.5,29.81,SW,225,5.0,13.0,93,0.00,,,0.04,Wunderground v.1.15,2013-11-07 04:00:00,
2013-11-06 23:10:00,48.3,46.7,29.81,SSW,207,5.0,13.0,94,0.00,,,0.04,Wunderground v.1.15,2013-11-07 04:10:00,
2013-11-06 23:20:00,48.0,46.4,29.80,SSW,207,3.0,13.0,94,0.00,,,0.04,Wunderground v.1.15,2013-11-07 04:20:00,
2013-11-06 23:30:00,48.8,47.4,29.80,SSW,203,6.0,13.0,95,0.00,,,0.04,Wunderground v.1.15,2013-11-07 04:30:00,
2013-11-06 23:40:00,49.3,47.6,29.80,SSW,202,5.0,13.0,94,0.00,,,0.04,Wunderground v.1.15,2013-11-07 04:40:00,
2013-11-06 23:50:00,49.5,47.6,29.80,SSW,205,5.0,5.0,93,0.00,,,0.04,Wunderground v.1.15,2013-11-07 04:50:00,